Terminal Aerodrome Forecast
Issued by NWS Detroit/Pontiac, MI

Home | Current Version | Previous Version | Text Only | Print | Product List | Glossary On
Versions: 1 2 3 4 5 6 7 8 9 10 11 12 13 14 15 16 17 18 19 20 21 22
469
FTUS43 KDTX 211417 AAA
TAFFNT
TAF AMD
KFNT 211417Z 2114/2212 12003KT 1/2SM FG OVC003
      TEMPO 2114/2116 1/4SM FG VV002
     FM211600 17005KT 2SM BR OVC005
      TEMPO 2116/2118 3/4SM BR OVC003
     FM211800 16007KT 5SM BR OVC008
     FM220300 17005KT 3/4SM BR OVC004
     FM220600 12003KT 1/4SM FG VV002=

USA.gov is the U.S. government's official web portal to all federal, state and local government web resources and services.